CheckWX is a tool to help pilots better visualize weather data.  It is not intended as a substitute for an official pre-flight weather briefing.

08:53:27 UTC

KLAN METAR
Capital Region International Airport
Lansing, Michigan, USA
Current

60 mins ago

KLAN 220753Z 00000KT 5SM BR CLR M06/M08 A3036 RMK AO2 SLP292 T10611078
Observed
Feb-22 @ 07:53 UTC
Visibility
5 SM
Flight Rules
MVFR
Conditions
Mist
Cloud Levels
  • Clear skies
Temperature
-6°C / 21°F
Dewpoint
-8°C / 18°F
Humidity
86%
Altimeter
30.36" Hg
Pressure
1029.2 hPa
Previous

2 hours ago

KLAN 220653Z 28003KT 5SM BR CLR M07/M08 A3033 RMK AO2 SLP283 T10671083
Observed
Feb-22 @ 06:53 UTC
Wind
  • 280° at 3 KTS
Visibility
5 SM
Flight Rules
MVFR
Conditions
Mist
Cloud Levels
  • Clear skies
Temperature
-7°C / 19°F
Dewpoint
-8°C / 18°F
Humidity
93%
Altimeter
30.33" Hg
Pressure
1028.3 hPa
Previous

3 hours ago

KLAN 220553Z 27003KT 6SM BR CLR M05/M07 A3031 RMK AO2 SLP275 T10501072 11017 21050 51008
Observed
Feb-22 @ 05:53 UTC
Wind
  • 270° at 3 KTS
Visibility
6 SM
Flight Rules
VFR
Conditions
Mist
Cloud Levels
  • Clear skies
Temperature
-5°C / 23°F
Dewpoint
-7°C / 19°F
Humidity
86%
Altimeter
30.31" Hg
Pressure
1027.5 hPa